DKH100 SUMU-SCEL
Flight info
| Callsign | DKH100 |
|---|---|
| Flight time | 2h 21m |
| Altitude | 32000 |
| Route | DCT DAGUS DCT UGIMI UL405 TOSOR UT687 UMKAL UMKAL7C |
| Aircraft | A320/M-SDE3FGHIRWY/LB1 |
Departure
| Time | 2026-04-26 09:13 |
|---|---|
| Airport | Carrasco General Cesáreo L. Berisso International Airport (SUMU) |
Arrival
| Time | 2026-04-26 11:34 |
|---|---|
| Airport | Comodoro Arturo Merino Benítez International Airport (SCEL) |
| Time | Latitude | Longitude | Altitude | Speed | Heading |
|---|---|---|---|---|---|
| 2026-04-26 08:52 | -34.83620 | -56.01802 | 82 ft | 0 kts | 144° |
| 2026-04-26 08:57 | -34.83618 | -56.01803 | 83 ft | 6 kts | 144° |
| 2026-04-26 08:57 | -34.83598 | -56.01822 | 88 ft | 27 kts | 138° |
| 2026-04-26 08:57 | -34.83579 | -56.01844 | 88 ft | 38 kts | 127° |
| 2026-04-26 08:58 | -34.83567 | -56.01872 | 87 ft | 49 kts | 92° |
| 2026-04-26 08:58 | -34.83570 | -56.01890 | 85 ft | 38 kts | 53° |
| 2026-04-26 08:58 | -34.83572 | -56.01893 | 85 ft | 65 kts | 53° |
| 2026-04-26 09:08 | -34.83566 | -56.01883 | 82 ft | 8 kts | 53° |
| 2026-04-26 09:08 | -34.83490 | -56.01770 | 84 ft | 15 kts | 23° |
| 2026-04-26 09:08 | -34.83391 | -56.01812 | 84 ft | 16 kts | 322° |
| 2026-04-26 09:09 | -34.83288 | -56.01832 | 86 ft | 16 kts | 34° |
| 2026-04-26 09:09 | -34.83215 | -56.01721 | 85 ft | 17 kts | 54° |
| 2026-04-26 09:09 | -34.83140 | -56.01597 | 85 ft | 19 kts | 52° |
| 2026-04-26 09:09 | -34.83057 | -56.01464 | 84 ft | 20 kts | 54° |
| 2026-04-26 09:10 | -34.82970 | -56.01320 | 85 ft | 22 kts | 54° |
| 2026-04-26 09:10 | -34.82876 | -56.01170 | 84 ft | 23 kts | 43° |
| 2026-04-26 09:10 | -34.82779 | -56.01142 | 83 ft | 1 kts | 349° |
| 2026-04-26 09:10 | -34.82777 | -56.01143 | 83 ft | 0 kts | 349° |
| 2026-04-26 09:12 | -34.82767 | -56.01146 | 83 ft | 7 kts | 345° |
| 2026-04-26 09:12 | -34.82727 | -56.01248 | 85 ft | 19 kts | 239° |
| 2026-04-26 09:12 | -34.82817 | -56.01407 | 83 ft | 33 kts | 233° |
| 2026-04-26 09:13 | -34.83105 | -56.01877 | 86 ft | 111 kts | 233° |
| 2026-04-26 09:13 | -34.83706 | -56.02872 | 121 ft | 174 kts | 234° |
| 2026-04-26 09:13 | -34.84473 | -56.04063 | 721 ft | 178 kts | 234° |
| 2026-04-26 09:13 | -34.85233 | -56.05252 | 1301 ft | 182 kts | 231° |
| 2026-04-26 09:14 | -34.86224 | -56.06277 | 1818 ft | 195 kts | 217° |
| 2026-04-26 09:14 | -34.87516 | -56.07065 | 2260 ft | 221 kts | 206° |
| 2026-04-26 09:14 | -34.89039 | -56.07684 | 2807 ft | 241 kts | 203° |
| 2026-04-26 09:14 | -34.90724 | -56.08285 | 3286 ft | 264 kts | 201° |
| 2026-04-26 09:15 | -34.92543 | -56.08922 | 3946 ft | 275 kts | 200° |
| 2026-04-26 09:15 | -34.94373 | -56.09482 | 5087 ft | 270 kts | 200° |
| 2026-04-26 09:15 | -34.96207 | -56.10018 | 6018 ft | 273 kts | 200° |
| 2026-04-26 09:15 | -34.98066 | -56.10570 | 6847 ft | 277 kts | 200° |
| 2026-04-26 09:16 | -34.99945 | -56.11145 | 7707 ft | 279 kts | 202° |
| 2026-04-26 09:16 | -35.01663 | -56.12122 | 8549 ft | 269 kts | 224° |
| 2026-04-26 09:16 | -35.02875 | -56.13790 | 9432 ft | 260 kts | 246° |
| 2026-04-26 09:16 | -35.03451 | -56.15849 | 10249 ft | 256 kts | 265° |
| 2026-04-26 09:17 | -35.03438 | -56.18076 | 10651 ft | 274 kts | 275° |
| 2026-04-26 09:17 | -35.03269 | -56.20488 | 10860 ft | 297 kts | 276° |
| 2026-04-26 09:17 | -35.03071 | -56.23100 | 11003 ft | 321 kts | 276° |
| 2026-04-26 09:17 | -35.02859 | -56.25899 | 11134 ft | 342 kts | 276° |
| 2026-04-26 09:18 | -35.02640 | -56.28861 | 11442 ft | 355 kts | 276° |
| 2026-04-26 09:18 | -35.02420 | -56.31886 | 12020 ft | 360 kts | 276° |
| 2026-04-26 09:18 | -35.02200 | -56.34946 | 12649 ft | 363 kts | 276° |
| 2026-04-26 09:18 | -35.01981 | -56.38025 | 13267 ft | 366 kts | 276° |
| 2026-04-26 09:19 | -35.01761 | -56.41132 | 13851 ft | 369 kts | 275° |
| 2026-04-26 09:19 | -35.01542 | -56.44257 | 14404 ft | 371 kts | 275° |
| 2026-04-26 09:19 | -35.01322 | -56.47398 | 14966 ft | 372 kts | 275° |
| 2026-04-26 09:19 | -35.01098 | -56.50545 | 15496 ft | 373 kts | 275° |
| 2026-04-26 09:20 | -35.00866 | -56.53710 | 16048 ft | 375 kts | 275° |
| 2026-04-26 09:20 | -35.00633 | -56.56838 | 16585 ft | 376 kts | 275° |
| 2026-04-26 09:20 | -35.00396 | -56.60021 | 17169 ft | 377 kts | 275° |
| 2026-04-26 09:20 | -35.00154 | -56.63245 | 17742 ft | 378 kts | 275° |
| 2026-04-26 09:21 | -34.99919 | -56.66398 | 18256 ft | 379 kts | 275° |
| 2026-04-26 09:21 | -34.99679 | -56.69599 | 18690 ft | 380 kts | 275° |
| 2026-04-26 09:21 | -34.99437 | -56.72818 | 19114 ft | 382 kts | 275° |
| 2026-04-26 09:21 | -34.99196 | -56.76051 | 19528 ft | 383 kts | 275° |
| 2026-04-26 09:22 | -34.98956 | -56.79294 | 19933 ft | 385 kts | 275° |
| 2026-04-26 09:22 | -34.98714 | -56.82550 | 20332 ft | 386 kts | 275° |
| 2026-04-26 09:22 | -34.98472 | -56.85819 | 20756 ft | 387 kts | 275° |
| 2026-04-26 09:22 | -34.98271 | -56.89092 | 21179 ft | 387 kts | 271° |
| 2026-04-26 09:23 | -34.98261 | -56.92380 | 21566 ft | 389 kts | 270° |
| 2026-04-26 09:23 | -34.98252 | -56.95678 | 21943 ft | 390 kts | 270° |
| 2026-04-26 09:23 | -34.98240 | -56.98991 | 22306 ft | 391 kts | 271° |
| 2026-04-26 09:23 | -34.98221 | -57.02309 | 22655 ft | 393 kts | 271° |
| 2026-04-26 09:24 | -34.98204 | -57.05647 | 22999 ft | 394 kts | 271° |
| 2026-04-26 09:24 | -34.98189 | -57.08995 | 23335 ft | 395 kts | 271° |
| 2026-04-26 09:24 | -34.98176 | -57.12353 | 23625 ft | 396 kts | 270° |
| 2026-04-26 09:24 | -34.98162 | -57.15707 | 23963 ft | 396 kts | 270° |
| 2026-04-26 09:25 | -34.98145 | -57.19059 | 24338 ft | 394 kts | 271° |
| 2026-04-26 09:25 | -34.98126 | -57.22392 | 24753 ft | 392 kts | 271° |
| 2026-04-26 09:25 | -34.98113 | -57.24401 | 24999 ft | 391 kts | 271° |
| 2026-04-26 09:25 | -34.98103 | -57.25932 | 25180 ft | 390 kts | 271° |
| 2026-04-26 09:26 | -34.98085 | -57.29231 | 25591 ft | 388 kts | 271° |
| 2026-04-26 09:26 | -34.98070 | -57.32521 | 26005 ft | 387 kts | 271° |
| 2026-04-26 09:26 | -34.98054 | -57.35794 | 26421 ft | 385 kts | 271° |
| 2026-04-26 09:26 | -34.98037 | -57.39059 | 26852 ft | 384 kts | 271° |
| 2026-04-26 09:27 | -34.98017 | -57.42298 | 27316 ft | 381 kts | 271° |
| 2026-04-26 09:27 | -34.97994 | -57.45520 | 27765 ft | 379 kts | 271° |
| 2026-04-26 09:27 | -34.97969 | -57.48728 | 28201 ft | 378 kts | 271° |
| 2026-04-26 09:27 | -34.97942 | -57.51922 | 28608 ft | 376 kts | 271° |
| 2026-04-26 09:28 | -34.97917 | -57.55107 | 29034 ft | 375 kts | 271° |
| 2026-04-26 09:28 | -34.97891 | -57.58287 | 29455 ft | 374 kts | 271° |
| 2026-04-26 09:28 | -34.97865 | -57.61454 | 29879 ft | 373 kts | 271° |
| 2026-04-26 09:28 | -34.97837 | -57.64608 | 30239 ft | 371 kts | 271° |
| 2026-04-26 09:29 | -34.97809 | -57.67748 | 30673 ft | 369 kts | 272° |
| 2026-04-26 09:29 | -34.97779 | -57.70860 | 31086 ft | 366 kts | 271° |
| 2026-04-26 09:29 | -34.97747 | -57.73932 | 31285 ft | 356 kts | 271° |
| 2026-04-26 09:29 | -34.97716 | -57.76923 | 31402 ft | 350 kts | 271° |
| 2026-04-26 09:30 | -34.97685 | -57.79869 | 31526 ft | 355 kts | 271° |
| 2026-04-26 09:30 | -34.97624 | -57.85806 | 31753 ft | 332 kts | 271° |
| 2026-04-26 09:30 | -34.97577 | -57.88535 | 31847 ft | 313 kts | 274° |
| 2026-04-26 09:31 | -34.97270 | -57.91093 | 31872 ft | 298 kts | 281° |
| 2026-04-26 09:31 | -34.96719 | -57.93468 | 31879 ft | 284 kts | 283° |
| 2026-04-26 09:31 | -34.96177 | -57.95720 | 31866 ft | 269 kts | 283° |
| 2026-04-26 09:31 | -34.95671 | -57.97855 | 31863 ft | 255 kts | 282° |
| 2026-04-26 09:32 | -34.95196 | -57.99868 | 31860 ft | 240 kts | 282° |
| 2026-04-26 09:32 | -34.94750 | -58.01765 | 31860 ft | 225 kts | 282° |
| 2026-04-26 09:32 | -34.94333 | -58.03538 | 31859 ft | 210 kts | 282° |
| 2026-04-26 09:32 | -34.93939 | -58.05204 | 31681 ft | 202 kts | 282° |
| 2026-04-26 09:33 | -34.93538 | -58.06930 | 31302 ft | 222 kts | 282° |
| 2026-04-26 09:33 | -34.93143 | -58.08780 | 31373 ft | 231 kts | 281° |
| 2026-04-26 09:33 | -34.92775 | -58.10589 | 31231 ft | 246 kts | 281° |
| 2026-04-26 09:34 | -34.92568 | -58.11594 | 31128 ft | 256 kts | 281° |
| 2026-04-26 09:34 | -34.92080 | -58.13795 | 30722 ft | 281 kts | 283° |
| 2026-04-26 09:34 | -34.91491 | -58.16161 | 30381 ft | 303 kts | 284° |
| 2026-04-26 09:34 | -34.90843 | -58.18702 | 30004 ft | 325 kts | 284° |
| 2026-04-26 09:35 | -34.90160 | -58.21398 | 29844 ft | 340 kts | 284° |
| 2026-04-26 09:35 | -34.88996 | -58.26085 | 29817 ft | 355 kts | 284° |
| 2026-04-26 09:36 | -34.87343 | -58.32956 | 29867 ft | 373 kts | 284° |
| 2026-04-26 09:36 | -34.86114 | -58.38119 | 29866 ft | 385 kts | 284° |
| 2026-04-26 09:37 | -34.84587 | -58.44485 | 29868 ft | 398 kts | 284° |
| 2026-04-26 09:37 | -34.83042 | -58.50869 | 29864 ft | 385 kts | 284° |
| 2026-04-26 09:38 | -34.82012 | -58.57141 | 29869 ft | 379 kts | 276° |
| 2026-04-26 09:38 | -34.81336 | -58.63505 | 29866 ft | 379 kts | 277° |
| 2026-04-26 09:39 | -34.80641 | -58.69856 | 29865 ft | 379 kts | 277° |
| 2026-04-26 09:39 | -34.79939 | -58.76212 | 29888 ft | 379 kts | 276° |
| 2026-04-26 09:40 | -34.79243 | -58.82566 | 29884 ft | 379 kts | 276° |
| 2026-04-26 09:40 | -34.78549 | -58.88918 | 29880 ft | 379 kts | 276° |
| 2026-04-26 09:41 | -34.77841 | -58.95267 | 29879 ft | 379 kts | 276° |
| 2026-04-26 09:41 | -34.77128 | -59.01613 | 29871 ft | 379 kts | 276° |
| 2026-04-26 09:42 | -34.76415 | -59.07967 | 29866 ft | 379 kts | 276° |
| 2026-04-26 09:42 | -34.75699 | -59.14329 | 29870 ft | 380 kts | 276° |
| 2026-04-26 09:43 | -34.74982 | -59.20689 | 29878 ft | 380 kts | 276° |
| 2026-04-26 09:43 | -34.74258 | -59.27046 | 29879 ft | 380 kts | 276° |
| 2026-04-26 09:44 | -34.73532 | -59.33403 | 29894 ft | 380 kts | 276° |
| 2026-04-26 09:44 | -34.72799 | -59.39764 | 29882 ft | 380 kts | 276° |
| 2026-04-26 09:45 | -34.72063 | -59.46127 | 29879 ft | 380 kts | 276° |
| 2026-04-26 09:45 | -34.71328 | -59.52493 | 29882 ft | 380 kts | 277° |
| 2026-04-26 09:46 | -34.70585 | -59.58853 | 29882 ft | 380 kts | 277° |
| 2026-04-26 09:46 | -34.69844 | -59.65212 | 29887 ft | 380 kts | 276° |
| 2026-04-26 09:47 | -34.69094 | -59.71564 | 29887 ft | 380 kts | 276° |
| 2026-04-26 09:47 | -34.68343 | -59.77914 | 29890 ft | 380 kts | 276° |
| 2026-04-26 09:48 | -34.67590 | -59.84262 | 29859 ft | 380 kts | 276° |
| 2026-04-26 09:48 | -34.66832 | -59.90631 | 29904 ft | 381 kts | 276° |
| 2026-04-26 09:49 | -34.66069 | -59.97004 | 29899 ft | 381 kts | 276° |
| 2026-04-26 09:49 | -34.65305 | -60.03380 | 29897 ft | 381 kts | 276° |
| 2026-04-26 09:50 | -34.64538 | -60.09754 | 29901 ft | 381 kts | 276° |
| 2026-04-26 09:50 | -34.63766 | -60.16125 | 29905 ft | 381 kts | 276° |
| 2026-04-26 09:51 | -34.62992 | -60.22494 | 29898 ft | 381 kts | 276° |
| 2026-04-26 09:51 | -34.62207 | -60.28855 | 29903 ft | 381 kts | 276° |
| 2026-04-26 09:52 | -34.61420 | -60.35214 | 29909 ft | 381 kts | 276° |
| 2026-04-26 09:52 | -34.60242 | -60.44751 | 29878 ft | 382 kts | 276° |
| 2026-04-26 09:53 | -34.59452 | -60.51090 | 29912 ft | 383 kts | 275° |
| 2026-04-26 09:53 | -34.58658 | -60.57478 | 29917 ft | 383 kts | 275° |
| 2026-04-26 09:54 | -34.57861 | -60.63865 | 29916 ft | 383 kts | 275° |
| 2026-04-26 09:54 | -34.57057 | -60.70256 | 29919 ft | 383 kts | 276° |
| 2026-04-26 09:55 | -34.56243 | -60.76642 | 29944 ft | 383 kts | 275° |
| 2026-04-26 09:55 | -34.55433 | -60.83004 | 29925 ft | 381 kts | 275° |
| 2026-04-26 09:56 | -34.54621 | -60.89355 | 29928 ft | 381 kts | 275° |
| 2026-04-26 09:56 | -34.53792 | -60.95701 | 29929 ft | 381 kts | 276° |
| 2026-04-26 09:57 | -34.52827 | -61.02029 | 29887 ft | 383 kts | 277° |
| 2026-04-26 09:57 | -34.51809 | -61.08388 | 29931 ft | 384 kts | 276° |
| 2026-04-26 09:58 | -34.50805 | -61.14748 | 29934 ft | 384 kts | 276° |
| 2026-04-26 09:58 | -34.49815 | -61.21116 | 29938 ft | 384 kts | 276° |
| 2026-04-26 09:59 | -34.48827 | -61.27475 | 29937 ft | 384 kts | 276° |
| 2026-04-26 09:59 | -34.47834 | -61.33831 | 29959 ft | 384 kts | 275° |
| 2026-04-26 10:00 | -34.46839 | -61.40191 | 29944 ft | 384 kts | 275° |
| 2026-04-26 10:00 | -34.45844 | -61.46500 | 29947 ft | 384 kts | 275° |
| 2026-04-26 10:01 | -34.44833 | -61.52852 | 29940 ft | 384 kts | 275° |
| 2026-04-26 10:01 | -34.43820 | -61.59208 | 29945 ft | 385 kts | 276° |
| 2026-04-26 10:02 | -34.42802 | -61.65587 | 29948 ft | 386 kts | 276° |
| 2026-04-26 10:02 | -34.41775 | -61.71964 | 29951 ft | 386 kts | 276° |
| 2026-04-26 10:03 | -34.40743 | -61.78343 | 29953 ft | 386 kts | 276° |
| 2026-04-26 10:03 | -34.39713 | -61.84720 | 29953 ft | 386 kts | 276° |
| 2026-04-26 10:04 | -34.38671 | -61.91099 | 29953 ft | 386 kts | 276° |
| 2026-04-26 10:04 | -34.37630 | -61.97477 | 29956 ft | 387 kts | 276° |
| 2026-04-26 10:05 | -34.36590 | -62.03871 | 29959 ft | 387 kts | 276° |
| 2026-04-26 10:05 | -34.35536 | -62.10264 | 29964 ft | 387 kts | 276° |
| 2026-04-26 10:06 | -34.34479 | -62.16664 | 29967 ft | 389 kts | 277° |
| 2026-04-26 10:06 | -34.33418 | -62.23088 | 29969 ft | 389 kts | 276° |
| 2026-04-26 10:07 | -34.32356 | -62.29527 | 29972 ft | 390 kts | 276° |
| 2026-04-26 10:07 | -34.31279 | -62.35965 | 29975 ft | 391 kts | 276° |
| 2026-04-26 10:08 | -34.30199 | -62.42405 | 29978 ft | 391 kts | 276° |
| 2026-04-26 10:08 | -34.29115 | -62.48840 | 29978 ft | 391 kts | 276° |
| 2026-04-26 10:09 | -34.28038 | -62.55279 | 29983 ft | 391 kts | 276° |
| 2026-04-26 10:09 | -34.26948 | -62.61734 | 29983 ft | 392 kts | 276° |
| 2026-04-26 10:10 | -34.25862 | -62.68154 | 29908 ft | 392 kts | 277° |
| 2026-04-26 10:10 | -34.24763 | -62.74668 | 29984 ft | 397 kts | 277° |
| 2026-04-26 10:11 | -34.23647 | -62.81212 | 29991 ft | 398 kts | 277° |
| 2026-04-26 10:11 | -34.22526 | -62.87763 | 29991 ft | 399 kts | 277° |
| 2026-04-26 10:12 | -34.21401 | -62.94333 | 29994 ft | 399 kts | 277° |
| 2026-04-26 10:12 | -34.20271 | -63.00899 | 29996 ft | 399 kts | 277° |
| 2026-04-26 10:13 | -34.19128 | -63.07461 | 29996 ft | 399 kts | 277° |
| 2026-04-26 10:13 | -34.17987 | -63.14028 | 29998 ft | 400 kts | 277° |
| 2026-04-26 10:14 | -34.16840 | -63.20615 | 30002 ft | 401 kts | 277° |
| 2026-04-26 10:14 | -34.15696 | -63.27215 | 30004 ft | 403 kts | 278° |
| 2026-04-26 10:15 | -34.14534 | -63.33841 | 30007 ft | 404 kts | 278° |
| 2026-04-26 10:15 | -34.13323 | -63.40469 | 30010 ft | 404 kts | 279° |
| 2026-04-26 10:16 | -34.12002 | -63.47079 | 30011 ft | 406 kts | 279° |
| 2026-04-26 10:16 | -34.10675 | -63.53668 | 30013 ft | 407 kts | 279° |
| 2026-04-26 10:17 | -34.09433 | -63.59951 | 30013 ft | 407 kts | 278° |
| 2026-04-26 10:17 | -34.08125 | -63.66591 | 30021 ft | 407 kts | 278° |
| 2026-04-26 10:18 | -34.06807 | -63.73232 | 30021 ft | 407 kts | 279° |
| 2026-04-26 10:18 | -34.05478 | -63.79878 | 29971 ft | 408 kts | 279° |
| 2026-04-26 10:19 | -34.04144 | -63.86515 | 30029 ft | 407 kts | 279° |
| 2026-04-26 10:19 | -34.02825 | -63.93138 | 30030 ft | 406 kts | 279° |
| 2026-04-26 10:20 | -34.01732 | -63.98642 | 30033 ft | 406 kts | 279° |
| 2026-04-26 10:20 | -34.00183 | -64.06378 | 30037 ft | 407 kts | 278° |
| 2026-04-26 10:21 | -33.98837 | -64.13034 | 30041 ft | 409 kts | 278° |
| 2026-04-26 10:21 | -33.97487 | -64.19698 | 30041 ft | 410 kts | 278° |
| 2026-04-26 10:22 | -33.96132 | -64.26371 | 30046 ft | 410 kts | 278° |
| 2026-04-26 10:22 | -33.94776 | -64.33038 | 30046 ft | 410 kts | 278° |
| 2026-04-26 10:23 | -33.93426 | -64.39682 | 30049 ft | 408 kts | 278° |
| 2026-04-26 10:23 | -33.92072 | -64.46310 | 30047 ft | 408 kts | 278° |
| 2026-04-26 10:24 | -33.90733 | -64.52942 | 30052 ft | 407 kts | 277° |
| 2026-04-26 10:24 | -33.89626 | -64.59599 | 30049 ft | 405 kts | 276° |
| 2026-04-26 10:25 | -33.88612 | -64.66234 | 30063 ft | 406 kts | 276° |
| 2026-04-26 10:25 | -33.87552 | -64.72905 | 30057 ft | 406 kts | 276° |
| 2026-04-26 10:26 | -33.86449 | -64.79569 | 30070 ft | 406 kts | 276° |
| 2026-04-26 10:26 | -33.85329 | -64.86225 | 30071 ft | 406 kts | 276° |
| 2026-04-26 10:27 | -33.84213 | -64.92879 | 30063 ft | 406 kts | 276° |
| 2026-04-26 10:27 | -33.83105 | -64.99533 | 30062 ft | 406 kts | 276° |
| 2026-04-26 10:28 | -33.81995 | -65.06198 | 30070 ft | 406 kts | 276° |
| 2026-04-26 10:28 | -33.80876 | -65.12861 | 30076 ft | 406 kts | 276° |
| 2026-04-26 10:29 | -33.79752 | -65.19525 | 30079 ft | 407 kts | 276° |
| 2026-04-26 10:29 | -33.78624 | -65.26183 | 30084 ft | 407 kts | 276° |
| 2026-04-26 10:30 | -33.77491 | -65.32845 | 30084 ft | 408 kts | 276° |
| 2026-04-26 10:30 | -33.76347 | -65.39536 | 30090 ft | 409 kts | 276° |
| 2026-04-26 10:31 | -33.75199 | -65.46226 | 30086 ft | 409 kts | 276° |
| 2026-04-26 10:31 | -33.74046 | -65.52922 | 30085 ft | 409 kts | 276° |
| 2026-04-26 10:32 | -33.72896 | -65.59611 | 30080 ft | 408 kts | 277° |
| 2026-04-26 10:32 | -33.71745 | -65.66282 | 30099 ft | 408 kts | 277° |
| 2026-04-26 10:33 | -33.70590 | -65.72960 | 30101 ft | 408 kts | 277° |
| 2026-04-26 10:33 | -33.69429 | -65.79639 | 30101 ft | 408 kts | 277° |
| 2026-04-26 10:34 | -33.68257 | -65.86318 | 30101 ft | 409 kts | 277° |
| 2026-04-26 10:34 | -33.67285 | -65.91873 | 30097 ft | 409 kts | 277° |
| 2026-04-26 10:35 | -33.66114 | -65.98565 | 30105 ft | 411 kts | 276° |
| 2026-04-26 10:35 | -33.64934 | -66.05283 | 30099 ft | 411 kts | 276° |
| 2026-04-26 10:36 | -33.63742 | -66.11997 | 30101 ft | 411 kts | 276° |
| 2026-04-26 10:36 | -33.62545 | -66.18706 | 30104 ft | 411 kts | 277° |
| 2026-04-26 10:37 | -33.61351 | -66.25407 | 30097 ft | 411 kts | 277° |
| 2026-04-26 10:37 | -33.60156 | -66.32119 | 30100 ft | 412 kts | 277° |
| 2026-04-26 10:38 | -33.58946 | -66.38842 | 30096 ft | 412 kts | 277° |
| 2026-04-26 10:38 | -33.57733 | -66.45558 | 30094 ft | 412 kts | 277° |
| 2026-04-26 10:39 | -33.56523 | -66.52278 | 30097 ft | 412 kts | 277° |
| 2026-04-26 10:39 | -33.55315 | -66.58999 | 30097 ft | 413 kts | 277° |
| 2026-04-26 10:40 | -33.54096 | -66.65685 | 30103 ft | 413 kts | 277° |
| 2026-04-26 10:40 | -33.52867 | -66.72412 | 30103 ft | 413 kts | 277° |
| 2026-04-26 10:41 | -33.51638 | -66.79154 | 30093 ft | 414 kts | 277° |
| 2026-04-26 10:41 | -33.50407 | -66.85892 | 30076 ft | 414 kts | 278° |
| 2026-04-26 10:42 | -33.49163 | -66.92633 | 30098 ft | 415 kts | 278° |
| 2026-04-26 10:42 | -33.47919 | -66.99390 | 30098 ft | 416 kts | 278° |
| 2026-04-26 10:43 | -33.46665 | -67.06149 | 30098 ft | 416 kts | 278° |
| 2026-04-26 10:43 | -33.45404 | -67.12911 | 30095 ft | 416 kts | 278° |
| 2026-04-26 10:44 | -33.44145 | -67.19671 | 30092 ft | 416 kts | 278° |
| 2026-04-26 10:44 | -33.42892 | -67.26398 | 30093 ft | 417 kts | 278° |
| 2026-04-26 10:45 | -33.41618 | -67.33182 | 30090 ft | 418 kts | 278° |
| 2026-04-26 10:45 | -33.40337 | -67.39973 | 30087 ft | 418 kts | 278° |
| 2026-04-26 10:46 | -33.39058 | -67.46755 | 30087 ft | 418 kts | 278° |
| 2026-04-26 10:46 | -33.37775 | -67.53544 | 30090 ft | 417 kts | 278° |
| 2026-04-26 10:47 | -33.36487 | -67.60330 | 30084 ft | 419 kts | 278° |
| 2026-04-26 10:47 | -33.35190 | -67.67133 | 30081 ft | 420 kts | 278° |
| 2026-04-26 10:48 | -33.33884 | -67.73945 | 30081 ft | 420 kts | 279° |
| 2026-04-26 10:48 | -33.32581 | -67.80749 | 30079 ft | 420 kts | 278° |
| 2026-04-26 10:49 | -33.31275 | -67.87557 | 30081 ft | 420 kts | 279° |
| 2026-04-26 10:49 | -33.29954 | -67.94364 | 30079 ft | 420 kts | 279° |
| 2026-04-26 10:50 | -33.28859 | -68.00020 | 30076 ft | 420 kts | 279° |
| 2026-04-26 10:50 | -33.27316 | -68.07977 | 30076 ft | 420 kts | 279° |
| 2026-04-26 10:51 | -33.25325 | -68.18174 | 30080 ft | 418 kts | 279° |
| 2026-04-26 10:52 | -33.24012 | -68.24916 | 30080 ft | 421 kts | 279° |
| 2026-04-26 10:52 | -33.22674 | -68.31745 | 30074 ft | 422 kts | 279° |
| 2026-04-26 10:53 | -33.21334 | -68.38575 | 30074 ft | 422 kts | 279° |
| 2026-04-26 10:53 | -33.19986 | -68.45398 | 30073 ft | 422 kts | 279° |
| 2026-04-26 10:54 | -33.17949 | -68.55637 | 30081 ft | 424 kts | 279° |
| 2026-04-26 10:54 | -33.16589 | -68.62492 | 29894 ft | 425 kts | 279° |
| 2026-04-26 10:55 | -33.15909 | -68.65928 | 29683 ft | 425 kts | 279° |
| 2026-04-26 10:55 | -33.15224 | -68.69362 | 29456 ft | 426 kts | 279° |
| 2026-04-26 10:55 | -33.14535 | -68.72803 | 29231 ft | 427 kts | 279° |
| 2026-04-26 10:55 | -33.13841 | -68.76249 | 29011 ft | 428 kts | 279° |
| 2026-04-26 10:56 | -33.13145 | -68.79707 | 28788 ft | 429 kts | 279° |
| 2026-04-26 10:56 | -33.12449 | -68.83168 | 28539 ft | 431 kts | 279° |
| 2026-04-26 10:56 | -33.11748 | -68.86651 | 28297 ft | 433 kts | 279° |
| 2026-04-26 10:56 | -33.11039 | -68.90169 | 28088 ft | 438 kts | 279° |
| 2026-04-26 10:57 | -33.10326 | -68.93706 | 27861 ft | 440 kts | 279° |
| 2026-04-26 10:57 | -33.09606 | -68.97262 | 27651 ft | 441 kts | 279° |
| 2026-04-26 10:57 | -33.08881 | -69.00824 | 27437 ft | 442 kts | 279° |
| 2026-04-26 10:57 | -33.08153 | -69.04390 | 27229 ft | 443 kts | 279° |
| 2026-04-26 10:58 | -33.07422 | -69.07959 | 27024 ft | 444 kts | 279° |
| 2026-04-26 10:58 | -33.06693 | -69.11537 | 26820 ft | 445 kts | 279° |
| 2026-04-26 10:58 | -33.05966 | -69.15123 | 26624 ft | 445 kts | 279° |
| 2026-04-26 10:58 | -33.05234 | -69.18714 | 26411 ft | 446 kts | 279° |
| 2026-04-26 10:59 | -33.04498 | -69.22315 | 26193 ft | 449 kts | 279° |
| 2026-04-26 10:59 | -33.03755 | -69.25944 | 25994 ft | 451 kts | 279° |
| 2026-04-26 10:59 | -33.03020 | -69.29531 | 25820 ft | 452 kts | 279° |
| 2026-04-26 10:59 | -33.02275 | -69.33170 | 25623 ft | 452 kts | 279° |
| 2026-04-26 11:00 | -33.01519 | -69.36863 | 25421 ft | 453 kts | 279° |
| 2026-04-26 11:00 | -33.00779 | -69.40465 | 25266 ft | 454 kts | 279° |
| 2026-04-26 11:00 | -33.00021 | -69.44120 | 25068 ft | 455 kts | 279° |
| 2026-04-26 11:00 | -32.99258 | -69.47780 | 24863 ft | 456 kts | 280° |
| 2026-04-26 11:01 | -32.98484 | -69.51506 | 24673 ft | 459 kts | 280° |
| 2026-04-26 11:01 | -32.97719 | -69.55192 | 24516 ft | 457 kts | 279° |
| 2026-04-26 11:01 | -32.96959 | -69.58858 | 24324 ft | 455 kts | 280° |
| 2026-04-26 11:01 | -32.96199 | -69.62514 | 24139 ft | 455 kts | 279° |
| 2026-04-26 11:02 | -32.95441 | -69.66169 | 24147 ft | 454 kts | 279° |
| 2026-04-26 11:02 | -32.94684 | -69.69811 | 24183 ft | 454 kts | 280° |
| 2026-04-26 11:02 | -32.93922 | -69.73456 | 24182 ft | 454 kts | 280° |
| 2026-04-26 11:02 | -32.93156 | -69.77103 | 24178 ft | 454 kts | 280° |
| 2026-04-26 11:03 | -32.92400 | -69.80696 | 24200 ft | 454 kts | 280° |
| 2026-04-26 11:03 | -32.91625 | -69.84384 | 24197 ft | 453 kts | 280° |
| 2026-04-26 11:03 | -32.90861 | -69.88025 | 24202 ft | 453 kts | 279° |
| 2026-04-26 11:03 | -32.90095 | -69.91659 | 24193 ft | 452 kts | 280° |
| 2026-04-26 11:04 | -32.89327 | -69.95280 | 24198 ft | 452 kts | 280° |
| 2026-04-26 11:04 | -32.88564 | -69.98906 | 24199 ft | 452 kts | 278° |
| 2026-04-26 11:04 | -32.88078 | -70.02581 | 24107 ft | 450 kts | 272° |
| 2026-04-26 11:04 | -32.87740 | -70.06262 | 23546 ft | 446 kts | 272° |
| 2026-04-26 11:05 | -32.87409 | -70.09914 | 22940 ft | 442 kts | 272° |
| 2026-04-26 11:05 | -32.87083 | -70.13540 | 22361 ft | 439 kts | 272° |
| 2026-04-26 11:05 | -32.86757 | -70.17138 | 21783 ft | 437 kts | 272° |
| 2026-04-26 11:05 | -32.86429 | -70.20713 | 21180 ft | 434 kts | 273° |
| 2026-04-26 11:06 | -32.86099 | -70.24295 | 20628 ft | 436 kts | 273° |
| 2026-04-26 11:06 | -32.85879 | -70.26661 | 20272 ft | 434 kts | 273° |
| 2026-04-26 11:06 | -32.85433 | -70.31416 | 19563 ft | 431 kts | 273° |
| 2026-04-26 11:06 | -32.85105 | -70.34899 | 19035 ft | 429 kts | 273° |
| 2026-04-26 11:07 | -32.84776 | -70.38409 | 18521 ft | 426 kts | 273° |
| 2026-04-26 11:07 | -32.84452 | -70.41901 | 17947 ft | 424 kts | 273° |
| 2026-04-26 11:07 | -32.84132 | -70.45378 | 17382 ft | 422 kts | 273° |
| 2026-04-26 11:07 | -32.83807 | -70.48891 | 17123 ft | 422 kts | 273° |
| 2026-04-26 11:08 | -32.83488 | -70.52306 | 16612 ft | 420 kts | 273° |
| 2026-04-26 11:08 | -32.83163 | -70.55741 | 15826 ft | 412 kts | 273° |
| 2026-04-26 11:08 | -32.82844 | -70.59038 | 15077 ft | 392 kts | 273° |
| 2026-04-26 11:08 | -32.82537 | -70.62181 | 14448 ft | 373 kts | 273° |
| 2026-04-26 11:09 | -32.82248 | -70.65174 | 13864 ft | 357 kts | 272° |
| 2026-04-26 11:09 | -32.82174 | -70.66187 | 13636 ft | 350 kts | 269° |
| 2026-04-26 11:09 | -32.82337 | -70.68516 | 13150 ft | 331 kts | 253° |
| 2026-04-26 11:10 | -32.83170 | -70.70987 | 12514 ft | 316 kts | 236° |
| 2026-04-26 11:10 | -32.84535 | -70.72963 | 11883 ft | 305 kts | 221° |
| 2026-04-26 11:10 | -32.86077 | -70.74649 | 11273 ft | 298 kts | 221° |
| 2026-04-26 11:10 | -32.87586 | -70.76310 | 10670 ft | 293 kts | 220° |
| 2026-04-26 11:11 | -32.89066 | -70.77947 | 10077 ft | 289 kts | 220° |
| 2026-04-26 11:11 | -32.90533 | -70.79566 | 9435 ft | 288 kts | 219° |
| 2026-04-26 11:11 | -32.92220 | -70.80861 | 8810 ft | 291 kts | 201° |
| 2026-04-26 11:11 | -32.93788 | -70.81396 | 8311 ft | 294 kts | 187° |
| 2026-04-26 11:12 | -32.94251 | -70.81467 | 8239 ft | 293 kts | 186° |
| 2026-04-26 11:12 | -32.96251 | -70.81751 | 8014 ft | 284 kts | 186° |
| 2026-04-26 11:12 | -32.98183 | -70.82038 | 7976 ft | 278 kts | 186° |
| 2026-04-26 11:12 | -33.00098 | -70.82325 | 7979 ft | 277 kts | 185° |
| 2026-04-26 11:13 | -33.02019 | -70.82310 | 7987 ft | 276 kts | 177° |
| 2026-04-26 11:13 | -33.03938 | -70.82208 | 7986 ft | 276 kts | 177° |
| 2026-04-26 11:13 | -33.05854 | -70.82104 | 7988 ft | 276 kts | 177° |
| 2026-04-26 11:13 | -33.07775 | -70.81995 | 7840 ft | 279 kts | 176° |
| 2026-04-26 11:14 | -33.09736 | -70.81882 | 7230 ft | 285 kts | 177° |
| 2026-04-26 11:14 | -33.11736 | -70.81765 | 6638 ft | 290 kts | 177° |
| 2026-04-26 11:14 | -33.13727 | -70.81650 | 6012 ft | 283 kts | 177° |
| 2026-04-26 11:14 | -33.15016 | -70.81575 | 5601 ft | 278 kts | 176° |
| 2026-04-26 11:15 | -33.17546 | -70.81430 | 5067 ft | 261 kts | 176° |
| 2026-04-26 11:15 | -33.19279 | -70.81332 | 4974 ft | 238 kts | 176° |
| 2026-04-26 11:15 | -33.20878 | -70.81245 | 4752 ft | 223 kts | 176° |
| 2026-04-26 11:15 | -33.22387 | -70.81165 | 4484 ft | 213 kts | 177° |
| 2026-04-26 11:16 | -33.23859 | -70.81086 | 4208 ft | 210 kts | 177° |
| 2026-04-26 11:16 | -33.25295 | -70.81009 | 3938 ft | 203 kts | 177° |
| 2026-04-26 11:16 | -33.26649 | -70.80937 | 3693 ft | 186 kts | 177° |
| 2026-04-26 11:16 | -33.27866 | -70.80872 | 3469 ft | 165 kts | 176° |
| 2026-04-26 11:17 | -33.28970 | -70.80813 | 3242 ft | 155 kts | 176° |
| 2026-04-26 11:17 | -33.30031 | -70.80756 | 3028 ft | 152 kts | 177° |
| 2026-04-26 11:17 | -33.31064 | -70.80700 | 2816 ft | 146 kts | 177° |
| 2026-04-26 11:17 | -33.32068 | -70.80647 | 2607 ft | 144 kts | 177° |
| 2026-04-26 11:18 | -33.33062 | -70.80593 | 2405 ft | 143 kts | 177° |
| 2026-04-26 11:18 | -33.34053 | -70.80540 | 2210 ft | 143 kts | 177° |
| 2026-04-26 11:18 | -33.35063 | -70.80486 | 2018 ft | 147 kts | 177° |
| 2026-04-26 11:18 | -33.35740 | -70.80450 | 1893 ft | 147 kts | 177° |
| 2026-04-26 11:19 | -33.36767 | -70.80395 | 1696 ft | 148 kts | 177° |
| 2026-04-26 11:19 | -33.37768 | -70.80342 | 1583 ft | 134 kts | 178° |
| 2026-04-26 11:19 | -33.38918 | -70.80286 | 1716 ft | 135 kts | 178° |
| 2026-04-26 11:19 | -33.39956 | -70.80237 | 2114 ft | 163 kts | 177° |
| 2026-04-26 11:20 | -33.41158 | -70.80175 | 2357 ft | 183 kts | 177° |
| 2026-04-26 11:20 | -33.42039 | -70.80049 | 2523 ft | 198 kts | 162° |
| 2026-04-26 11:20 | -33.43276 | -70.79208 | 2995 ft | 210 kts | 139° |
| 2026-04-26 11:20 | -33.44072 | -70.77746 | 3656 ft | 216 kts | 106° |
| 2026-04-26 11:21 | -33.44196 | -70.75964 | 3945 ft | 220 kts | 82° |
| 2026-04-26 11:21 | -33.43568 | -70.74316 | 4006 ft | 222 kts | 49° |
| 2026-04-26 11:21 | -33.42268 | -70.73363 | 4010 ft | 223 kts | 14° |
| 2026-04-26 11:21 | -33.40725 | -70.73181 | 4011 ft | 224 kts | 2° |
| 2026-04-26 11:22 | -33.39172 | -70.73168 | 4011 ft | 224 kts | 0° |
| 2026-04-26 11:22 | -33.37618 | -70.73173 | 3996 ft | 220 kts | 0° |
| 2026-04-26 11:22 | -33.36140 | -70.73184 | 3886 ft | 206 kts | 0° |
| 2026-04-26 11:22 | -33.34723 | -70.73194 | 3558 ft | 203 kts | 0° |
| 2026-04-26 11:23 | -33.33321 | -70.73202 | 3155 ft | 201 kts | 360° |
| 2026-04-26 11:23 | -33.31968 | -70.73208 | 2992 ft | 185 kts | 358° |
| 2026-04-26 11:23 | -33.30758 | -70.73348 | 3024 ft | 165 kts | 351° |
| 2026-04-26 11:23 | -33.29654 | -70.73564 | 3027 ft | 158 kts | 350° |
| 2026-04-26 11:24 | -33.28644 | -70.74012 | 2925 ft | 154 kts | 321° |
| 2026-04-26 11:24 | -33.28062 | -70.75044 | 2973 ft | 153 kts | 285° |
| 2026-04-26 11:24 | -33.28111 | -70.76286 | 2991 ft | 152 kts | 248° |
| 2026-04-26 11:24 | -33.28570 | -70.77422 | 2997 ft | 152 kts | 243° |
| 2026-04-26 11:25 | -33.29035 | -70.78556 | 3013 ft | 152 kts | 243° |
| 2026-04-26 11:25 | -33.29546 | -70.79659 | 2969 ft | 152 kts | 230° |
| 2026-04-26 11:25 | -33.30355 | -70.80431 | 2868 ft | 149 kts | 204° |
| 2026-04-26 11:25 | -33.31357 | -70.80685 | 2720 ft | 148 kts | 178° |
| 2026-04-26 11:26 | -33.32390 | -70.80630 | 2523 ft | 148 kts | 177° |
| 2026-04-26 11:26 | -33.33421 | -70.80574 | 2327 ft | 148 kts | 176° |
| 2026-04-26 11:26 | -33.34454 | -70.80519 | 2132 ft | 149 kts | 177° |
| 2026-04-26 11:26 | -33.35489 | -70.80463 | 1937 ft | 149 kts | 177° |
| 2026-04-26 11:27 | -33.36519 | -70.80410 | 1766 ft | 148 kts | 178° |
| 2026-04-26 11:27 | -33.37547 | -70.80353 | 1624 ft | 150 kts | 177° |
| 2026-04-26 11:27 | -33.38618 | -70.80299 | 1619 ft | 155 kts | 177° |
| 2026-04-26 11:27 | -33.39621 | -70.79962 | 2446 ft | 146 kts | 137° |
| 2026-04-26 11:28 | -33.40041 | -70.78815 | 3074 ft | 172 kts | 93° |
| 2026-04-26 11:28 | -33.39900 | -70.77152 | 3080 ft | 231 kts | 77° |
| 2026-04-26 11:28 | -33.39132 | -70.75527 | 2990 ft | 216 kts | 43° |
| 2026-04-26 11:28 | -33.37914 | -70.74636 | 2995 ft | 199 kts | 26° |
| 2026-04-26 11:29 | -33.36669 | -70.73982 | 3011 ft | 193 kts | 18° |
| 2026-04-26 11:29 | -33.35350 | -70.73942 | 3014 ft | 191 kts | 351° |
| 2026-04-26 11:29 | -33.34040 | -70.74183 | 3010 ft | 190 kts | 351° |
| 2026-04-26 11:29 | -33.32738 | -70.74460 | 3010 ft | 190 kts | 347° |
| 2026-04-26 11:30 | -33.31461 | -70.74861 | 3009 ft | 190 kts | 346° |
| 2026-04-26 11:30 | -33.30626 | -70.75084 | 3001 ft | 181 kts | 349° |
| 2026-04-26 11:30 | -33.29107 | -70.75585 | 3002 ft | 162 kts | 328° |
| 2026-04-26 11:30 | -33.28358 | -70.76535 | 2997 ft | 157 kts | 295° |
| 2026-04-26 11:31 | -33.28154 | -70.77765 | 3035 ft | 154 kts | 264° |
| 2026-04-26 11:31 | -33.28525 | -70.78955 | 3019 ft | 152 kts | 232° |
| 2026-04-26 11:31 | -33.29234 | -70.79865 | 3014 ft | 152 kts | 225° |
| 2026-04-26 11:31 | -33.30101 | -70.80564 | 2920 ft | 151 kts | 199° |
| 2026-04-26 11:32 | -33.31136 | -70.80699 | 2771 ft | 151 kts | 176° |
| 2026-04-26 11:32 | -33.32180 | -70.80642 | 2567 ft | 149 kts | 176° |
| 2026-04-26 11:32 | -33.33210 | -70.80586 | 2366 ft | 148 kts | 176° |
| 2026-04-26 11:32 | -33.34237 | -70.80531 | 2169 ft | 148 kts | 177° |
| 2026-04-26 11:33 | -33.35263 | -70.80476 | 1973 ft | 148 kts | 177° |
| 2026-04-26 11:33 | -33.36303 | -70.80408 | 1781 ft | 147 kts | 178° |
| 2026-04-26 11:33 | -33.37295 | -70.80367 | 1606 ft | 142 kts | 178° |
| 2026-04-26 11:33 | -33.38204 | -70.80322 | 1572 ft | 114 kts | 178° |
| 2026-04-26 11:34 | -33.38474 | -70.80309 | 1573 ft | 78 kts | 177° |
| 2026-04-26 11:34 | -33.38823 | -70.80289 | 1575 ft | 54 kts | 177° |
| 2026-04-26 11:34 | -33.39165 | -70.80266 | 1573 ft | 41 kts | 173° |
| 2026-04-26 11:34 | -33.39340 | -70.80182 | 1571 ft | 18 kts | 160° |
| 2026-04-26 11:35 | -33.39458 | -70.80103 | 1567 ft | 22 kts | 147° |
| 2026-04-26 11:35 | -33.39531 | -70.79949 | 1565 ft | 23 kts | 88° |
| 2026-04-26 11:35 | -33.39524 | -70.79747 | 1565 ft | 25 kts | 87° |
| 2026-04-26 11:35 | -33.39549 | -70.79609 | 1565 ft | 12 kts | 157° |
| 2026-04-26 11:36 | -33.39605 | -70.79607 | 1565 ft | 0 kts | 176° |